createdAt,value
2018-02-24T00:01:48.870Z,-3.20
2018-02-24T00:04:16.356Z,-3.00
2018-02-24T00:06:43.839Z,-3.10
2018-02-24T00:09:11.329Z,-3.10
2018-02-24T00:11:38.817Z,-3.20
2018-02-24T00:14:06.296Z,-3.00
2018-02-24T00:16:34.538Z,-3.20
2018-02-24T00:19:02.038Z,-3.10
2018-02-24T00:21:30.270Z,-3.10
2018-02-24T00:23:57.754Z,-3.30
2018-02-24T00:26:25.991Z,-3.50
2018-02-24T00:28:53.475Z,-3.20
2018-02-24T00:31:20.998Z,-3.40
2018-02-24T00:33:48.476Z,-3.40
2018-02-24T00:36:15.963Z,-3.40
2018-02-24T00:38:43.459Z,-3.20
2018-02-24T00:41:10.949Z,-3.30
2018-02-24T00:43:38.431Z,-3.30
2018-02-24T00:46:05.911Z,-3.60
2018-02-24T00:48:34.160Z,-3.20
2018-02-24T00:51:01.635Z,-3.20
2018-02-24T00:53:29.878Z,-3.20
2018-02-24T00:55:57.354Z,-3.20
2018-02-24T00:58:24.847Z,-3.10
2018-02-24T01:00:53.086Z,-3.40
2018-02-24T01:03:20.590Z,-3.40
2018-02-24T01:05:48.067Z,-3.50
2018-02-24T01:08:15.556Z,-3.30
2018-02-24T01:10:43.031Z,-3.40
2018-02-24T01:13:10.513Z,-3.50
2018-02-24T01:15:37.987Z,-3.40
2018-02-24T01:18:05.480Z,-3.50
2018-02-24T01:20:32.990Z,-3.40
2018-02-24T01:23:00.475Z,-3.50
2018-02-24T01:25:27.948Z,-3.60
2018-02-24T01:27:55.422Z,-3.60
2018-02-24T01:30:22.958Z,-3.50
2018-02-24T01:32:50.433Z,-3.70
2018-02-24T01:35:17.918Z,-3.40
2018-02-24T01:37:46.152Z,-3.70
2018-02-24T01:40:13.653Z,-3.40
2018-02-24T01:42:41.907Z,-3.60
2018-02-24T01:45:09.455Z,-3.60
2018-02-24T01:47:36.914Z,-3.40
2018-02-24T01:50:04.412Z,-3.30
2018-02-24T01:52:32.665Z,-3.50
2018-02-24T01:55:00.196Z,-3.60
2018-02-24T01:57:27.685Z,-3.50
2018-02-24T01:59:55.517Z,-3.40
2018-02-24T02:02:23.006Z,-3.40
2018-02-24T02:04:50.482Z,-3.40
2018-02-24T02:07:18.722Z,-3.60
2018-02-24T02:09:46.198Z,-3.50
2018-02-24T02:12:13.680Z,-3.50
2018-02-24T02:14:41.922Z,-3.50
2018-02-24T02:17:09.530Z,-3.70
2018-02-24T02:19:37.014Z,-3.40
2018-02-24T02:22:04.490Z,-3.40
2018-02-24T02:24:31.977Z,-3.60
2018-02-24T02:27:00.267Z,-3.50
2018-02-24T02:29:28.507Z,-3.60
2018-02-24T02:31:55.985Z,-3.60
2018-02-24T02:34:23.471Z,-3.70
2018-02-24T02:36:50.946Z,-3.60
2018-02-24T02:39:18.425Z,-3.70
2018-02-24T02:41:45.895Z,-3.50
2018-02-24T02:44:13.376Z,-3.60
2018-02-24T02:46:40.849Z,-3.90
2018-02-24T02:49:09.088Z,-3.70
2018-02-24T02:51:36.562Z,-4.00
2018-02-24T02:54:04.046Z,-3.70
2018-02-24T02:56:32.301Z,-3.70
2018-02-24T02:58:59.784Z,-3.70
2018-02-24T03:01:27.265Z,-4.10
2018-02-24T03:03:54.750Z,-3.70
2018-02-24T03:06:22.227Z,-3.90
2018-02-24T03:08:49.698Z,-4.00
2018-02-24T03:11:18.323Z,-3.80
2018-02-24T03:13:45.792Z,-4.00
2018-02-24T03:16:13.286Z,-3.70
2018-02-24T03:18:40.763Z,-4.00
2018-02-24T03:21:09.020Z,-4.00
2018-02-24T03:23:36.477Z,-4.00
2018-02-24T03:26:03.975Z,-3.70
2018-02-24T03:28:31.446Z,-3.80
2018-02-24T03:30:58.915Z,-4.20
2018-02-24T03:33:26.388Z,-3.80
2018-02-24T03:35:53.870Z,-4.00
2018-02-24T03:38:21.360Z,-4.00
2018-02-24T03:40:49.585Z,-4.20
2018-02-24T03:43:17.169Z,-4.10
2018-02-24T03:45:49.167Z,-4.20
2018-02-24T03:48:16.644Z,-3.90
2018-02-24T03:50:44.134Z,-4.10
2018-02-24T03:53:11.609Z,-3.90
2018-02-24T03:55:39.087Z,-4.30
2018-02-24T03:58:07.335Z,-4.00
2018-02-24T04:00:34.814Z,-4.20
2018-02-24T04:03:03.048Z,-4.10
2018-02-24T04:05:30.531Z,-4.10
2018-02-24T04:07:58.003Z,-4.10
2018-02-24T04:10:26.253Z,-4.10
2018-02-24T04:12:53.718Z,-4.00
2018-02-24T04:15:21.199Z,-4.30
2018-02-24T04:17:49.437Z,-4.10
2018-02-24T04:20:16.923Z,-4.40
2018-02-24T04:22:44.461Z,-4.20
2018-02-24T04:25:13.450Z,-4.20
2018-02-24T04:27:40.935Z,-4.40
2018-02-24T04:30:08.431Z,-4.40
2018-02-24T04:32:35.901Z,-4.40
2018-02-24T04:35:03.386Z,-4.20
2018-02-24T04:37:30.951Z,-4.10
2018-02-24T04:39:58.447Z,-4.30
2018-02-24T04:42:25.910Z,-4.60
2018-02-24T04:44:53.385Z,-4.50
2018-02-24T04:47:20.887Z,-4.60
2018-02-24T04:49:48.377Z,-4.80
2018-02-24T04:52:16.603Z,-4.60
2018-02-24T04:54:44.080Z,-4.60
2018-02-24T04:57:11.639Z,-4.50
2018-02-24T04:59:39.114Z,-4.40
2018-02-24T05:02:07.346Z,-4.50
2018-02-24T05:04:34.828Z,-4.70
2018-02-24T05:07:02.295Z,-4.60
2018-02-24T05:09:29.775Z,-4.60
2018-02-24T05:11:57.246Z,-4.50
2018-02-24T05:14:24.731Z,-4.70
2018-02-24T05:16:52.188Z,-4.80
2018-02-24T05:19:19.650Z,-4.60
2018-02-24T05:21:47.114Z,-4.60
2018-02-24T05:24:14.599Z,-4.70
2018-02-24T05:26:42.087Z,-4.80
2018-02-24T05:29:09.558Z,-4.60
2018-02-24T05:31:37.043Z,-4.50
2018-02-24T05:34:04.516Z,-4.40
2018-02-24T05:36:31.994Z,-4.70
2018-02-24T05:39:00.235Z,-4.60
2018-02-24T05:41:27.710Z,-4.60
2018-02-24T05:43:55.182Z,-4.30
2018-02-24T05:46:22.662Z,-4.50
2018-02-24T05:48:50.147Z,-4.20
2018-02-24T05:51:17.618Z,-4.40
2018-02-24T05:53:45.086Z,-4.20
2018-02-24T05:56:12.564Z,-4.00
2018-02-24T05:58:40.044Z,-4.20
2018-02-24T06:01:08.289Z,-3.80
2018-02-24T06:03:35.759Z,-4.20
2018-02-24T06:06:03.230Z,-3.80
2018-02-24T06:08:31.471Z,-3.60
2018-02-24T06:10:58.954Z,-3.70
2018-02-24T06:13:26.418Z,-3.90
2018-02-24T06:15:54.663Z,-3.50
2018-02-24T06:18:22.134Z,-3.70
2018-02-24T06:20:49.612Z,-3.30
2018-02-24T06:23:17.862Z,-3.20
2018-02-24T06:25:45.333Z,-3.40
2018-02-24T06:28:13.593Z,-3.00
2018-02-24T06:30:41.062Z,-2.90
2018-02-24T06:33:08.549Z,-3.10
2018-02-24T06:35:36.803Z,-2.90
2018-02-24T06:38:04.271Z,-3.00
2018-02-24T06:40:32.527Z,-2.90
2018-02-24T06:42:59.999Z,-2.80
2018-02-24T06:45:28.250Z,-2.90
2018-02-24T06:47:55.730Z,-2.90
2018-02-24T06:50:23.211Z,-2.70
2018-02-24T06:52:50.686Z,-2.60
2018-02-24T06:55:18.183Z,-2.50
2018-02-24T06:57:45.644Z,-2.60
2018-02-24T07:00:13.122Z,-2.50
2018-02-24T07:02:41.359Z,-2.40
2018-02-24T07:05:08.843Z,-2.50
2018-02-24T07:07:36.309Z,-2.50
2018-02-24T07:10:03.791Z,-2.30
2018-02-24T07:12:31.261Z,-2.00
2018-02-24T07:14:58.758Z,-2.40
2018-02-24T07:17:26.221Z,-2.00
2018-02-24T07:19:53.694Z,-2.00
2018-02-24T07:22:21.195Z,-1.90
2018-02-24T07:24:48.671Z,-2.10
2018-02-24T07:27:16.158Z,-1.80
2018-02-24T07:29:43.624Z,-1.80
2018-02-24T07:32:11.119Z,-1.90
2018-02-24T07:34:39.350Z,-1.80
2018-02-24T07:37:07.851Z,-2.00
2018-02-24T07:39:36.103Z,-1.50
2018-02-24T07:42:03.594Z,-1.80
2018-02-24T07:44:31.833Z,-1.50
2018-02-24T07:46:59.315Z,-1.80
2018-02-24T07:49:26.794Z,-1.50
2018-02-24T07:51:55.059Z,-1.50
2018-02-24T07:54:23.303Z,-1.70
2018-02-24T07:56:50.787Z,-1.40
2018-02-24T07:59:19.175Z,-1.50
2018-02-24T08:01:47.434Z,-1.30
2018-02-24T08:04:14.912Z,-1.50
2018-02-24T08:06:43.153Z,-1.30
2018-02-24T08:09:10.650Z,-1.20
2018-02-24T08:11:38.895Z,-1.00
2018-02-24T08:14:06.380Z,-1.20
2018-02-24T08:16:34.626Z,-1.20
2018-02-24T08:19:02.108Z,-1.30
2018-02-24T08:21:30.359Z,-1.30
2018-02-24T08:23:57.839Z,-1.10
2018-02-24T08:26:25.313Z,-1.10
2018-02-24T08:28:53.567Z,-1.00
2018-02-24T08:31:21.055Z,-1.20
2018-02-24T08:33:48.543Z,-1.10
2018-02-24T08:36:16.022Z,-1.10
2018-02-24T08:38:43.499Z,-1.10
2018-02-24T08:41:10.994Z,-1.00
2018-02-24T08:43:38.457Z,-0.90
2018-02-24T08:46:05.949Z,-1.20
2018-02-24T08:48:34.187Z,-1.20
2018-02-24T08:51:01.666Z,-1.10
2018-02-24T08:53:29.166Z,-1.00
2018-02-24T08:55:56.650Z,-1.00
2018-02-24T08:58:24.134Z,-0.80
2018-02-24T09:00:59.779Z,-1.00
2018-02-24T09:03:27.262Z,-0.80
2018-02-24T09:05:55.978Z,-0.70
2018-02-24T09:08:24.232Z,-0.80
2018-02-24T09:10:51.720Z,-0.80
2018-02-24T09:13:19.954Z,-0.90
2018-02-24T09:15:47.442Z,-0.70
2018-02-24T09:18:14.920Z,-0.80
2018-02-24T09:20:43.166Z,-0.80
2018-02-24T09:23:10.644Z,-0.70
2018-02-24T09:25:38.130Z,-0.60
2018-02-24T09:28:05.603Z,-0.40
2018-02-24T09:30:33.085Z,-0.50
2018-02-24T09:33:00.588Z,-0.70
2018-02-24T09:35:28.834Z,-0.80
2018-02-24T09:37:56.319Z,-0.60
2018-02-24T09:40:23.782Z,-0.80
2018-02-24T09:42:52.031Z,-0.60
2018-02-24T09:45:19.511Z,-0.40
2018-02-24T09:47:47.760Z,-0.30
2018-02-24T09:50:15.264Z,-0.40
2018-02-24T09:52:42.755Z,-0.40
2018-02-24T09:55:10.235Z,0.10
2018-02-24T09:57:37.718Z,-0.20
2018-02-24T10:00:05.967Z,-0.10
2018-02-24T10:02:33.449Z,-0.30
2018-02-24T10:05:01.690Z,-0.20
2018-02-24T10:07:30.098Z,0.00
2018-02-24T10:09:57.575Z,-0.20
2018-02-24T10:12:25.826Z,-0.20
2018-02-24T10:14:53.310Z,0.20
2018-02-24T10:17:21.548Z,0.10
2018-02-24T10:19:49.024Z,0.10
2018-02-24T10:22:16.488Z,0.50
2018-02-24T10:24:43.960Z,0.50
2018-02-24T10:27:11.427Z,0.60
2018-02-24T10:29:38.908Z,0.60
2018-02-24T10:32:06.399Z,0.70
2018-02-24T10:34:33.850Z,0.50
2018-02-24T10:37:01.341Z,0.70
2018-02-24T10:39:28.803Z,1.00
2018-02-24T10:41:57.049Z,1.10
2018-02-24T10:44:24.532Z,1.10
2018-02-24T10:46:52.011Z,1.10
2018-02-24T10:49:20.234Z,1.60
2018-02-24T10:51:47.717Z,1.30
2018-02-24T10:54:15.179Z,1.30
2018-02-24T10:56:42.647Z,1.40
2018-02-24T10:59:10.879Z,1.90
2018-02-24T11:04:32.634Z,1.90
2018-02-24T11:07:00.103Z,2.00
2018-02-24T11:09:27.606Z,1.80
2018-02-24T11:11:55.086Z,2.10
2018-02-24T11:14:22.533Z,2.20
2018-02-24T11:16:50.006Z,2.10
2018-02-24T11:19:17.463Z,2.40
2018-02-24T11:21:44.946Z,2.50
2018-02-24T11:24:12.398Z,3.20
2018-02-24T11:26:39.873Z,3.40
2018-02-24T11:29:07.362Z,3.50
2018-02-24T11:31:35.216Z,3.50
2018-02-24T11:34:02.696Z,3.60
2018-02-24T11:36:30.174Z,3.90
2018-02-24T11:38:59.399Z,3.70
2018-02-24T11:41:26.853Z,3.80
2018-02-24T11:43:54.352Z,3.90
2018-02-24T11:46:21.823Z,3.90
2018-02-24T11:48:49.330Z,4.10
2018-02-24T11:51:16.786Z,3.90
2018-02-24T11:53:44.258Z,4.00
2018-02-24T11:56:11.719Z,4.00
2018-02-24T11:58:39.187Z,3.70
2018-02-24T12:01:06.668Z,3.60
2018-02-24T12:03:34.905Z,3.40
2018-02-24T12:06:02.367Z,3.70
2018-02-24T12:08:29.832Z,3.30
2018-02-24T12:10:57.282Z,3.40
2018-02-24T12:13:24.764Z,3.30
2018-02-24T12:15:52.982Z,3.60
2018-02-24T12:18:20.448Z,3.50
2018-02-24T12:20:47.904Z,3.60
2018-02-24T12:23:15.367Z,3.40
2018-02-24T12:25:42.847Z,3.40
2018-02-24T12:28:10.335Z,3.50
2018-02-24T12:30:38.554Z,3.40
2018-02-24T12:33:06.026Z,3.40
2018-02-24T12:35:33.522Z,3.50
2018-02-24T12:38:00.989Z,3.50
2018-02-24T12:40:29.207Z,3.70
2018-02-24T12:42:56.678Z,3.60
2018-02-24T12:45:24.152Z,3.70
2018-02-24T12:47:51.616Z,3.50
2018-02-24T12:50:19.091Z,3.50
2018-02-24T12:52:47.344Z,3.50
2018-02-24T12:55:14.803Z,3.60
2018-02-24T12:57:42.308Z,3.60
2018-02-24T13:00:09.776Z,3.50
2018-02-24T13:02:37.248Z,3.30
2018-02-24T13:05:04.717Z,3.30
2018-02-24T13:07:32.183Z,2.90
2018-02-24T13:09:59.661Z,3.00
2018-02-24T13:12:27.134Z,3.10
2018-02-24T13:14:55.345Z,2.90
2018-02-24T13:17:22.826Z,3.00
2018-02-24T13:19:50.315Z,2.90
2018-02-24T13:22:17.788Z,3.00
2018-02-24T13:24:46.038Z,3.00
2018-02-24T13:27:13.490Z,3.30
2018-02-24T13:29:40.980Z,3.20
2018-02-24T13:32:09.207Z,3.20
2018-02-24T13:34:36.673Z,3.50
2018-02-24T13:37:04.130Z,3.00
2018-02-24T13:39:31.606Z,3.10
2018-02-24T13:41:59.396Z,3.20
2018-02-24T13:44:27.626Z,3.30
2018-02-24T13:46:55.093Z,3.30
2018-02-24T13:49:22.564Z,2.90
2018-02-24T13:51:50.020Z,3.00
2018-02-24T13:54:17.483Z,2.80
2018-02-24T13:56:44.946Z,2.70
2018-02-24T13:59:13.190Z,2.60
2018-02-24T14:01:40.664Z,2.90
2018-02-24T14:04:08.136Z,2.70
2018-02-24T14:06:35.596Z,2.90
2018-02-24T14:09:03.062Z,2.70
2018-02-24T14:11:31.294Z,3.10
2018-02-24T14:13:58.774Z,2.80
2018-02-24T14:16:26.252Z,3.00
2018-02-24T14:18:54.490Z,3.00
2018-02-24T14:21:21.951Z,2.60
2018-02-24T14:23:49.438Z,2.70
2018-02-24T14:26:16.899Z,2.60
2018-02-24T14:28:45.125Z,2.40
2018-02-24T14:31:12.573Z,2.60
2018-02-24T14:33:40.043Z,2.50
2018-02-24T14:36:07.526Z,2.30
2018-02-24T14:38:34.996Z,2.60
2018-02-24T14:41:02.460Z,2.20
2018-02-24T14:43:29.955Z,2.40
2018-02-24T14:45:57.404Z,2.30
2018-02-24T14:48:24.881Z,2.50
2018-02-24T14:50:52.350Z,2.20
2018-02-24T14:53:19.815Z,2.50
2018-02-24T14:55:47.271Z,2.20
2018-02-24T14:58:14.746Z,2.00
2018-02-24T15:00:42.211Z,1.70
2018-02-24T15:03:09.677Z,1.90
2018-02-24T15:05:37.159Z,2.00
2018-02-24T15:08:05.395Z,2.10
2018-02-24T15:10:32.858Z,1.70
2018-02-24T15:13:00.342Z,1.70
2018-02-24T15:15:28.558Z,1.70
2018-02-24T15:17:56.013Z,1.60
2018-02-24T15:20:23.506Z,1.60
2018-02-24T15:22:50.964Z,1.70
2018-02-24T15:25:18.442Z,1.90
2018-02-24T15:27:45.902Z,1.70
2018-02-24T15:30:14.136Z,1.70
2018-02-24T15:32:41.614Z,1.70
2018-02-24T15:35:09.091Z,1.90
2018-02-24T15:37:37.315Z,2.10
2018-02-24T15:40:04.791Z,1.90
2018-02-24T15:42:32.272Z,1.70
2018-02-24T15:44:59.743Z,1.70
2018-02-24T15:47:27.969Z,1.40
2018-02-24T15:49:55.448Z,1.50
2018-02-24T15:52:22.917Z,1.50
2018-02-24T15:54:51.193Z,1.50
2018-02-24T15:57:18.672Z,1.30
2018-02-24T15:59:46.909Z,1.00
2018-02-24T16:02:15.147Z,1.10
2018-02-24T16:04:42.626Z,0.90
2018-02-24T16:07:10.091Z,0.90
2018-02-24T16:09:37.559Z,1.00
2018-02-24T16:12:05.035Z,1.00
2018-02-24T16:14:32.520Z,1.00
2018-02-24T16:17:00.750Z,1.00
2018-02-24T16:19:28.220Z,0.90
2018-02-24T16:24:48.974Z,0.90
2018-02-24T16:27:17.196Z,0.40
2018-02-24T16:29:44.674Z,0.50
2018-02-24T16:32:12.148Z,0.60
2018-02-24T16:34:39.626Z,0.40
2018-02-24T16:37:07.864Z,0.70
2018-02-24T16:39:36.095Z,0.70
2018-02-24T16:42:03.568Z,0.30
2018-02-24T16:44:31.031Z,0.60
2018-02-24T16:46:58.494Z,0.50
2018-02-24T16:49:25.967Z,0.70
2018-02-24T16:51:53.435Z,0.70
2018-02-24T16:54:20.912Z,0.30
2018-02-24T16:56:48.379Z,0.60
2018-02-24T16:59:16.621Z,0.20
2018-02-24T17:01:44.077Z,0.40
2018-02-24T17:04:11.567Z,0.50
2018-02-24T17:06:39.786Z,0.40
2018-02-24T17:09:07.269Z,0.50
2018-02-24T17:11:34.740Z,0.30
2018-02-24T17:14:02.237Z,0.10
2018-02-24T17:16:29.699Z,0.10
2018-02-24T17:18:57.184Z,0.00
2018-02-24T17:21:24.662Z,0.20
2018-02-24T17:23:53.167Z,-0.20
2018-02-24T17:26:21.419Z,-0.30
2018-02-24T17:28:48.905Z,-0.10
2018-02-24T17:31:16.380Z,-0.30
2018-02-24T17:33:43.862Z,-0.30
2018-02-24T17:36:11.353Z,-0.40
2018-02-24T17:38:38.840Z,-0.20
2018-02-24T17:41:07.074Z,-0.10
2018-02-24T17:43:34.548Z,-0.30
2018-02-24T17:46:02.035Z,-0.50
2018-02-24T17:48:30.262Z,-0.50
2018-02-24T17:50:57.746Z,-0.40
2018-02-24T17:53:25.218Z,-0.60
2018-02-24T17:55:52.701Z,-0.30
2018-02-24T17:58:20.210Z,-0.30
2018-02-24T18:00:47.687Z,-0.50
2018-02-24T18:03:15.154Z,-0.60
2018-02-24T18:05:43.420Z,-0.60
2018-02-24T18:08:10.896Z,-0.60
2018-02-24T18:10:39.139Z,-0.60
2018-02-24T18:13:06.639Z,-0.50
2018-02-24T18:15:34.159Z,-0.50
2018-02-24T18:18:01.632Z,-0.60
2018-02-24T18:20:29.127Z,-0.70
2018-02-24T18:22:56.658Z,-0.50
2018-02-24T18:25:24.910Z,-0.50
2018-02-24T18:27:52.407Z,-0.80
2018-02-24T18:30:20.650Z,-0.60
2018-02-24T18:32:48.127Z,-0.50
2018-02-24T18:35:16.381Z,-0.70
2018-02-24T18:37:43.900Z,-0.70
2018-02-24T18:40:11.386Z,-0.80
2018-02-24T18:42:38.858Z,-0.80
2018-02-24T18:45:06.335Z,-0.80
2018-02-24T18:47:34.570Z,-0.80
2018-02-24T18:50:02.047Z,-0.80
2018-02-24T18:52:29.527Z,-0.80
2018-02-24T18:54:57.774Z,-0.80
2018-02-24T18:57:25.242Z,-1.10
2018-02-24T18:59:52.714Z,-0.90
2018-02-24T19:02:20.965Z,-0.90
2018-02-24T19:04:48.450Z,-1.10
2018-02-24T19:07:16.703Z,-1.10
2018-02-24T19:09:44.172Z,-1.30
2018-02-24T19:12:11.643Z,-1.10
2018-02-24T19:14:39.911Z,-1.00
2018-02-24T19:17:07.380Z,-1.40
2018-02-24T19:19:35.668Z,-1.00
2018-02-24T19:22:03.906Z,-1.00
2018-02-24T19:24:31.389Z,-1.10
2018-02-24T19:26:59.635Z,-1.30
2018-02-24T19:29:27.120Z,-1.40
2018-02-24T19:31:54.590Z,-1.10
2018-02-24T19:34:22.826Z,-1.10
2018-02-24T19:36:50.303Z,-1.30
2018-02-24T19:39:17.770Z,-1.40
2018-02-24T19:41:46.011Z,-1.30
2018-02-24T19:44:13.480Z,-1.50
2018-02-24T19:46:40.971Z,-1.30
2018-02-24T19:49:09.195Z,-1.50
2018-02-24T19:51:36.671Z,-1.50
2018-02-24T19:54:04.148Z,-1.60
2018-02-24T19:56:31.636Z,-1.50
2018-02-24T19:58:59.107Z,-1.40
2018-02-24T20:01:26.578Z,-1.60
2018-02-24T20:03:54.078Z,-1.80
2018-02-24T20:06:21.554Z,-1.30
2018-02-24T20:08:49.806Z,-1.50
2018-02-24T20:11:17.295Z,-1.60
2018-02-24T20:13:45.548Z,-1.50
2018-02-24T20:16:13.026Z,-1.30
2018-02-24T20:18:41.263Z,-1.40
2018-02-24T20:21:08.749Z,-1.30
2018-02-24T20:23:36.987Z,-1.50
2018-02-24T20:26:05.231Z,-1.70
2018-02-24T20:28:32.731Z,-1.60
2018-02-24T20:31:00.199Z,-2.00
2018-02-24T20:33:27.666Z,-1.70
2018-02-24T20:35:55.146Z,-1.90
2018-02-24T20:38:23.375Z,-1.80
2018-02-24T20:40:50.850Z,-1.80
2018-02-24T20:43:18.315Z,-1.90
2018-02-24T20:45:45.785Z,-2.00
2018-02-24T20:48:14.062Z,-1.60
2018-02-24T20:50:42.319Z,-1.90
2018-02-24T20:53:09.782Z,-1.80
2018-02-24T20:55:37.263Z,-2.10
2018-02-24T20:58:05.498Z,-2.20
2018-02-24T21:00:32.975Z,-2.30
2018-02-24T21:03:00.447Z,-2.00
2018-02-24T21:05:28.691Z,-2.20
2018-02-24T21:07:56.151Z,-2.10
2018-02-24T21:10:23.622Z,-2.30
2018-02-24T21:12:51.102Z,-2.10
2018-02-24T21:15:18.556Z,-2.30
2018-02-24T21:17:46.792Z,-2.50
2018-02-24T21:20:15.027Z,-2.10
2018-02-24T21:22:42.486Z,-2.10
2018-02-24T21:25:09.967Z,-2.40
2018-02-24T21:27:37.444Z,-2.30
2018-02-24T21:30:04.928Z,-2.60
2018-02-24T21:32:32.393Z,-2.40
2018-02-24T21:34:59.864Z,-2.70
2018-02-24T21:37:28.106Z,-2.70
2018-02-24T21:42:29.507Z,-2.80
2018-02-24T21:44:57.750Z,-2.50
2018-02-24T21:47:25.223Z,-2.60
2018-02-24T21:49:52.691Z,-2.50
2018-02-24T21:52:20.943Z,-2.80
2018-02-24T21:54:48.418Z,-2.60
2018-02-24T21:57:15.885Z,-2.50
2018-02-24T21:59:44.117Z,-2.70
2018-02-24T22:02:11.614Z,-2.70
2018-02-24T22:04:39.847Z,-2.70
2018-02-24T22:07:07.332Z,-2.80
2018-02-24T22:09:34.784Z,-2.90
2018-02-24T22:12:02.259Z,-2.90
2018-02-24T22:14:29.714Z,-2.70
2018-02-24T22:16:57.950Z,-3.00
2018-02-24T22:19:25.419Z,-2.80
2018-02-24T22:21:52.887Z,-2.80
2018-02-24T22:24:20.360Z,-2.80
2018-02-24T22:26:47.829Z,-2.70
2018-02-24T22:29:16.068Z,-2.80
2018-02-24T22:31:43.550Z,-2.70
2018-02-24T22:34:11.018Z,-2.90
2018-02-24T22:36:39.258Z,-3.00
2018-02-24T22:39:06.764Z,-2.90
2018-02-24T22:41:35.030Z,-3.00
2018-02-24T22:44:02.486Z,-2.90
2018-02-24T22:46:30.730Z,-3.20
2018-02-24T22:49:01.046Z,-3.00
2018-02-24T22:51:28.558Z,-3.10
2018-02-24T22:53:56.774Z,-3.10
2018-02-24T22:56:24.259Z,-3.10
2018-02-24T22:58:51.710Z,-3.10
2018-02-24T23:01:19.181Z,-3.20
2018-02-24T23:03:46.662Z,-3.10
2018-02-24T23:06:14.933Z,-3.30
2018-02-24T23:08:43.170Z,-3.30
2018-02-24T23:11:10.658Z,-3.30
2018-02-24T23:13:38.111Z,-3.00
2018-02-24T23:16:05.581Z,-3.40
2018-02-24T23:18:33.814Z,-3.20
2018-02-24T23:21:01.282Z,-3.50
2018-02-24T23:23:28.747Z,-3.30
2018-02-24T23:25:56.235Z,-3.30
2018-02-24T23:28:24.465Z,-3.50
2018-02-24T23:30:51.976Z,-3.30
2018-02-24T23:33:19.475Z,-3.60
2018-02-24T23:35:46.930Z,-3.60
2018-02-24T23:38:14.420Z,-3.60
2018-02-24T23:40:41.906Z,-3.70
2018-02-24T23:43:10.159Z,-3.50
2018-02-24T23:45:37.636Z,-3.40
2018-02-24T23:48:05.894Z,-3.60
2018-02-24T23:50:33.356Z,-3.60
2018-02-24T23:53:00.830Z,-3.70
2018-02-24T23:55:29.063Z,-3.90
2018-02-24T23:57:56.903Z,-3.90
